Bolling, Alabama
Current Conditions -  °F | °C
As of 1:56 PM on Monday 22 Dec 2014 (Local Time) from KPRN Reporting Station
Overcast Overcast  
Wind Chill: 55°   Ceiling: 100
Heat Index: 55°   Visibility: 10mi
Dew Point: 53°   Wind: 7mph
Humidity: 93%   Direction: 120°ESE
Pressure: 29.81"   Gusts: NA
Location:  31.6006°N, 86.6979°W
Report Text: KPRN 221956Z AUTO 12006KT 10SM OVC001 13/12 A2981 RMK AO2 RAE12 SLP093 P0001 T01280117
Loading
Personal Weather Stations






























Interactive Weather Map New forecast layout! Learn more

10-Day Weather Forecast

Advertisements
Track Severe Weather on mobile